Time;durP1;ratioP1;P1;durP2;ratioP2;P2;SDS_P1;SDS_P2;PMS_P1;PMS_P2;Temp;Humidity;BMP_temperature;BMP_pressure;BME280_temperature;BME280_humidity;BME280_pressure;Samples;Min_cycle;Max_cycle;Signal;HPM_P1;HPM_P2
2022/07/25 00:00:08;;;;;;;0.00;0.00;;;21.10;99.90;;;;;;5069355;28;20134;-82
2022/07/25 00:02:34;;;;;;;0.00;0.00;;;21.00;99.90;;;;;;5085463;28;20049;-81
2022/07/25 00:05:00;;;;;;;0.10;0.10;;;21.00;99.90;;;;;;5069596;28;20053;-82
2022/07/25 00:07:26;;;;;;;0.00;0.00;;;21.00;99.90;;;;;;5068971;28;20148;-81
2022/07/25 00:09:52;;;;;;;0.00;0.00;;;20.90;99.90;;;;;;5085807;28;20045;-81
2022/07/25 00:12:19;;;;;;;0.60;0.10;;;20.90;99.90;;;;;;5085724;28;20049;-81
2022/07/25 00:14:44;;;;;;;0.00;0.00;;;20.90;99.90;;;;;;5085840;28;20064;-81
2022/07/25 00:17:10;;;;;;;0.00;0.00;;;20.90;99.90;;;;;;5085804;28;20049;-82
2022/07/25 00:19:36;;;;;;;0.00;0.00;;;20.80;99.90;;;;;;5085704;28;20366;-81
2022/07/25 00:22:01;;;;;;;0.00;0.00;;;20.80;99.90;;;;;;5069091;28;20049;-81
2022/07/25 00:24:27;;;;;;;0.00;0.00;;;20.80;99.90;;;;;;5069041;28;20505;-81
2022/07/25 00:26:53;;;;;;;0.00;0.00;;;20.80;99.90;;;;;;5085613;28;20102;-81
2022/07/25 00:29:18;;;;;;;0.00;0.00;;;20.70;99.90;;;;;;5085652;28;20041;-81
2022/07/25 00:31:44;;;;;;;0.00;0.00;;;20.80;99.90;;;;;;5068551;28;20072;-81
2022/07/25 00:34:10;;;;;;;0.00;0.00;;;20.80;99.90;;;;;;5068491;28;20366;-81
2022/07/25 00:36:35;;;;;;;0.00;0.00;;;20.80;99.90;;;;;;5068608;28;20099;-81
2022/07/25 00:39:02;;;;;;;0.00;0.00;;;20.80;99.90;;;;;;5068741;28;20159;-81
2022/07/25 00:41:27;;;;;;;0.10;0.00;;;20.80;99.90;;;;;;5087759;28;20107;-81
2022/07/25 00:43:53;;;;;;;0.08;0.08;;;20.80;99.90;;;;;;5072271;28;20140;-81
2022/07/25 00:46:19;;;;;;;0.13;0.13;;;20.80;99.90;;;;;;5072235;28;20053;-81
2022/07/25 00:48:44;;;;;;;0.00;0.00;;;20.90;99.90;;;;;;5072173;28;20575;-81
2022/07/25 00:51:10;;;;;;;0.00;0.00;;;20.90;99.90;;;;;;5089003;28;20382;-82
2022/07/25 00:53:38;;;;;;;0.00;0.00;;;20.90;99.90;;;;;;5089305;28;20098;-81
2022/07/25 00:56:05;;;;;;;0.03;0.00;;;20.90;99.90;;;;;;5088704;28;20045;-81
2022/07/25 00:58:31;;;;;;;0.00;0.00;;;20.90;99.90;;;;;;5088617;28;20381;-81
2022/07/25 01:00:57;;;;;;;0.00;0.00;;;20.80;99.90;;;;;;5071887;28;20559;-81
2022/07/25 01:03:23;;;;;;;0.55;0.10;;;20.80;99.90;;;;;;5088420;28;20168;-81
2022/07/25 01:05:49;;;;;;;0.00;0.00;;;20.80;99.90;;;;;;5088729;28;20073;-81
2022/07/25 01:08:17;;;;;;;0.00;0.00;;;20.80;99.90;;;;;;5088631;28;20459;-81
2022/07/25 01:10:44;;;;;;;0.10;0.10;;;20.70;99.90;;;;;;5088866;28;20067;-81
2022/07/25 01:13:10;;;;;;;0.52;0.20;;;20.70;99.90;;;;;;5088659;28;20122;-81
2022/07/25 01:15:35;;;;;;;0.10;0.00;;;20.70;99.90;;;;;;5071352;28;20480;-81
2022/07/25 01:18:01;;;;;;;0.10;0.00;;;20.70;99.90;;;;;;5071444;28;20052;-81
2022/07/25 01:20:28;;;;;;;0.20;0.17;;;20.70;99.90;;;;;;5088380;28;20087;-81
2022/07/25 01:22:55;;;;;;;0.10;0.10;;;20.70;99.90;;;;;;5038318;28;20132;-81
2022/07/25 01:25:21;;;;;;;0.03;0.03;;;20.70;99.90;;;;;;5088348;28;20477;-81
2022/07/25 01:27:47;;;;;;;0.28;0.28;;;20.70;99.90;;;;;;5088256;28;20053;-81
2022/07/25 01:30:14;;;;;;;0.00;0.00;;;20.70;99.90;;;;;;5071510;28;20065;-81
2022/07/25 01:32:41;;;;;;;0.10;0.00;;;20.80;99.90;;;;;;5071294;28;20094;-81
2022/07/25 01:35:07;;;;;;;0.22;0.20;;;20.80;99.90;;;;;;5071342;28;20127;-81
2022/07/25 01:37:34;;;;;;;0.00;0.00;;;20.80;99.90;;;;;;5088013;28;20069;-81
2022/07/25 01:40:00;;;;;;;0.00;0.00;;;20.80;99.90;;;;;;5088016;28;20124;-81
2022/07/25 01:42:27;;;;;;;0.00;0.00;;;20.70;99.90;;;;;;5087640;28;20044;-81
2022/07/25 01:44:53;;;;;;;0.00;0.00;;;20.80;99.90;;;;;;5088022;28;20131;-81
2022/07/25 01:47:18;;;;;;;0.00;0.00;;;20.80;99.90;;;;;;5070987;28;20052;-81
2022/07/25 01:49:44;;;;;;;0.00;0.00;;;20.70;99.90;;;;;;5087951;28;20492;-81
2022/07/25 01:52:11;;;;;;;0.10;0.10;;;20.80;99.90;;;;;;5070419;28;20389;-81
2022/07/25 01:54:37;;;;;;;0.00;0.00;;;20.80;99.90;;;;;;5087862;28;20037;-81
2022/07/25 01:57:03;;;;;;;0.28;0.15;;;20.70;99.90;;;;;;5087652;28;20539;-81
2022/07/25 01:59:29;;;;;;;0.00;0.00;;;20.70;99.90;;;;;;5070662;28;20404;-81
2022/07/25 02:01:55;;;;;;;0.20;0.20;;;20.70;99.90;;;;;;5087740;28;20059;-81
2022/07/25 02:04:21;;;;;;;0.00;0.00;;;20.70;99.90;;;;;;5070743;28;20045;-81
2022/07/25 02:06:47;;;;;;;0.00;0.00;;;20.70;99.90;;;;;;5071284;28;20053;-81
2022/07/25 02:09:13;;;;;;;0.30;0.00;;;20.70;99.90;;;;;;5087420;28;20451;-81
2022/07/25 02:11:39;;;;;;;0.10;0.10;;;20.70;99.90;;;;;;5087316;28;20131;-81
2022/07/25 02:14:05;;;;;;;0.03;0.00;;;20.70;99.90;;;;;;5069996;28;20083;-81
2022/07/25 02:16:30;;;;;;;0.00;0.00;;;20.60;99.90;;;;;;5087410;28;20443;-81
2022/07/25 02:18:56;;;;;;;3.03;0.10;;;20.60;99.90;;;;;;5070540;28;20047;-81
2022/07/25 02:21:22;;;;;;;0.00;0.00;;;20.60;99.90;;;;;;5070472;28;20041;-81
2022/07/25 02:23:47;;;;;;;0.52;0.15;;;20.60;99.90;;;;;;5069785;28;20404;-81
2022/07/25 02:26:13;;;;;;;0.10;0.10;;;20.60;99.90;;;;;;5087010;28;20053;-81
2022/07/25 02:28:39;;;;;;;0.00;0.00;;;20.60;99.90;;;;;;5087094;28;20439;-80
2022/07/25 02:31:05;;;;;;;0.20;0.20;;;20.60;99.90;;;;;;5053518;28;20052;-81
2022/07/25 02:33:31;;;;;;;0.00;0.00;;;20.60;99.90;;;;;;5087159;28;20049;-81
2022/07/25 02:35:56;;;;;;;0.20;0.10;;;20.60;99.90;;;;;;5087005;28;20053;-81
2022/07/25 02:38:22;;;;;;;0.00;0.00;;;20.50;99.90;;;;;;5069965;28;20386;-81
2022/07/25 02:40:50;;;;;;;0.00;0.00;;;20.50;99.90;;;;;;5086584;28;20374;-81
2022/07/25 02:43:16;;;;;;;0.00;0.00;;;20.50;99.90;;;;;;5069638;28;20037;-81
2022/07/25 02:45:42;;;;;;;0.32;0.00;;;20.40;99.90;;;;;;5069991;28;20049;-81
2022/07/25 02:48:08;;;;;;;0.80;0.20;;;20.40;99.90;;;;;;5086722;28;20041;-81
2022/07/25 02:50:34;;;;;;;0.00;0.00;;;20.40;99.90;;;;;;5086814;28;20392;-81
2022/07/25 02:52:59;;;;;;;0.00;0.00;;;20.40;99.90;;;;;;5086696;28;20053;-81
2022/07/25 02:55:25;;;;;;;0.10;0.10;;;20.40;99.90;;;;;;5086634;28;20048;-81
2022/07/25 02:57:51;;;;;;;0.50;0.30;;;20.40;99.90;;;;;;5085581;28;20115;-81
2022/07/25 03:00:16;;;;;;;0.15;0.15;;;20.40;99.90;;;;;;5086177;28;20122;-81
2022/07/25 03:02:42;;;;;;;0.32;0.10;;;20.40;99.90;;;;;;5084409;28;20048;-81
2022/07/25 03:05:11;;;;;;;0.00;0.00;;;20.40;99.90;;;;;;5086339;28;20044;-81
2022/07/25 03:07:37;;;;;;;0.00;0.00;;;20.40;99.90;;;;;;5052558;28;20381;-81
2022/07/25 03:10:05;;;;;;;0.10;0.00;;;20.40;99.90;;;;;;5069578;28;20040;-81
2022/07/25 03:12:33;;;;;;;0.00;0.00;;;20.40;99.90;;;;;;5053097;28;20052;-81
2022/07/25 03:15:00;;;;;;;0.10;0.10;;;20.40;99.90;;;;;;5086104;28;20481;-81
2022/07/25 03:17:27;;;;;;;0.00;0.00;;;20.30;99.90;;;;;;5069495;28;20045;-81
2022/07/25 03:19:53;;;;;;;0.10;0.10;;;20.30;99.90;;;;;;5086306;28;20094;-81
2022/07/25 03:22:19;;;;;;;0.00;0.00;;;20.30;99.90;;;;;;5086121;28;20095;-81
2022/07/25 03:24:45;;;;;;;0.05;0.05;;;20.30;99.90;;;;;;5086339;28;20435;-81
2022/07/25 03:27:10;;;;;;;0.00;0.00;;;20.30;99.90;;;;;;5069366;28;20041;-81
2022/07/25 03:29:36;;;;;;;0.30;0.25;;;20.30;99.90;;;;;;5086066;28;20079;-81
2022/07/25 03:32:03;;;;;;;0.00;0.00;;;20.30;99.90;;;;;;5086312;28;20052;-81
2022/07/25 03:34:28;;;;;;;0.00;0.00;;;20.30;99.90;;;;;;5069519;28;20092;-81
2022/07/25 03:36:54;;;;;;;0.38;0.10;;;20.20;99.90;;;;;;5086075;28;20092;-81
2022/07/25 03:39:20;;;;;;;0.00;0.00;;;20.20;99.90;;;;;;5085935;28;20073;-81
2022/07/25 03:41:45;;;;;;;0.00;0.00;;;20.20;99.90;;;;;;5036028;28;20115;-81
2022/07/25 03:44:12;;;;;;;0.10;0.10;;;20.20;99.90;;;;;;5086024;28;20107;-81
2022/07/25 03:46:37;;;;;;;0.08;0.08;;;20.20;99.90;;;;;;5069193;28;20131;-81
2022/07/25 03:49:03;;;;;;;0.00;0.00;;;20.20;99.90;;;;;;5068974;28;20135;-81
2022/07/25 03:51:29;;;;;;;0.10;0.10;;;20.20;99.90;;;;;;5069072;28;20067;-81
2022/07/25 03:54:01;;;;;;;0.00;0.00;;;20.20;99.90;;;;;;5085541;28;20110;-81
2022/07/25 03:56:28;;;;;;;0.00;0.00;;;20.20;99.90;;;;;;5085990;28;20091;-81
2022/07/25 03:58:53;;;;;;;0.03;0.03;;;20.20;99.90;;;;;;5069127;28;20053;-80
2022/07/25 04:01:19;;;;;;;0.00;0.00;;;20.20;99.90;;;;;;5069109;28;20528;-80
2022/07/25 04:03:45;;;;;;;0.00;0.00;;;20.20;99.90;;;;;;5068471;28;20404;-80
2022/07/25 04:06:11;;;;;;;0.77;0.20;;;20.20;99.90;;;;;;5085784;28;20052;-80
2022/07/25 04:08:36;;;;;;;0.08;0.03;;;20.20;99.90;;;;;;5085957;28;20392;-80
2022/07/25 04:11:02;;;;;;;0.00;0.00;;;20.20;99.90;;;;;;5069451;28;20045;-80
2022/07/25 04:13:28;;;;;;;0.00;0.00;;;20.20;99.90;;;;;;5085901;28;20472;-81
2022/07/25 04:15:54;;;;;;;0.85;0.20;;;20.30;99.90;;;;;;5070260;28;20041;-80
2022/07/25 04:18:20;;;;;;;0.03;0.03;;;20.30;99.90;;;;;;5072703;28;20052;-80
2022/07/25 04:20:46;;;;;;;0.00;0.00;;;20.30;99.90;;;;;;5072476;28;20068;-81
2022/07/25 04:23:11;;;;;;;0.03;0.03;;;20.40;99.90;;;;;;5071878;28;20396;-80
2022/07/25 04:25:37;;;;;;;0.00;0.00;;;20.40;99.90;;;;;;5089365;28;20084;-81
2022/07/25 04:28:03;;;;;;;0.00;0.00;;;20.40;99.90;;;;;;5072614;28;20056;-81
2022/07/25 04:30:29;;;;;;;0.03;0.00;;;20.50;99.90;;;;;;5072545;28;20057;-80
2022/07/25 04:32:55;;;;;;;0.00;0.00;;;20.50;99.90;;;;;;5072382;28;20444;-80
2022/07/25 04:35:20;;;;;;;0.30;0.30;;;20.50;99.90;;;;;;5089122;28;20045;-80
2022/07/25 04:37:46;;;;;;;2.72;0.20;;;20.60;99.90;;;;;;5072303;28;20049;-80
2022/07/25 04:40:12;;;;;;;0.10;0.00;;;20.60;99.90;;;;;;5089069;28;20041;-80
2022/07/25 04:42:38;;;;;;;0.10;0.10;;;20.70;99.90;;;;;;5089001;28;20041;-80
2022/07/25 04:45:04;;;;;;;0.00;0.00;;;20.80;99.90;;;;;;5072084;28;20041;-81
2022/07/25 04:47:29;;;;;;;0.20;0.20;;;20.80;99.90;;;;;;5089059;28;20045;-81
2022/07/25 04:49:55;;;;;;;0.00;0.00;;;20.90;99.90;;;;;;5072121;28;20152;-81
2022/07/25 04:52:21;;;;;;;0.22;0.22;;;20.90;99.90;;;;;;5072143;28;20033;-80
2022/07/25 04:54:46;;;;;;;0.10;0.10;;;21.00;99.90;;;;;;5088807;28;20102;-81
2022/07/25 04:57:12;;;;;;;0.30;0.30;;;21.00;99.90;;;;;;5088745;28;20135;-81
2022/07/25 04:59:38;;;;;;;0.80;0.15;;;21.00;99.90;;;;;;5087837;28;20053;-81
2022/07/25 05:02:03;;;;;;;0.10;0.10;;;21.00;99.90;;;;;;5071745;28;20067;-81
2022/07/25 05:04:29;;;;;;;0.08;0.00;;;21.00;99.90;;;;;;5055004;28;20045;-81
2022/07/25 05:06:54;;;;;;;0.08;0.05;;;21.00;99.90;;;;;;5088709;28;20102;-81
2022/07/25 05:09:20;;;;;;;0.20;0.20;;;21.00;99.90;;;;;;5088753;28;20037;-81
2022/07/25 05:11:46;;;;;;;0.00;0.00;;;21.10;99.90;;;;;;5072046;28;20061;-81
2022/07/25 05:14:11;;;;;;;0.00;0.00;;;21.10;99.90;;;;;;5088478;28;20366;-81
2022/07/25 05:16:37;;;;;;;0.00;0.00;;;21.20;99.90;;;;;;5071520;28;20045;-81
2022/07/25 05:19:03;;;;;;;0.20;0.10;;;21.20;99.90;;;;;;5088010;28;20044;-81
2022/07/25 05:21:28;;;;;;;0.00;0.00;;;21.30;99.90;;;;;;5088651;28;20045;-81
2022/07/25 05:23:54;;;;;;;0.00;0.00;;;21.30;99.90;;;;;;5087699;28;20077;-81
2022/07/25 05:26:20;;;;;;;0.28;0.28;;;21.40;99.90;;;;;;5087923;28;20354;-81
2022/07/25 05:28:45;;;;;;;0.57;0.30;;;21.50;99.90;;;;;;5070218;28;20056;-81
2022/07/25 05:31:11;;;;;;;0.17;0.10;;;21.50;99.90;;;;;;5071377;28;20144;-81
2022/07/25 05:33:36;;;;;;;0.05;0.05;;;21.50;99.90;;;;;;5071173;28;20128;-81
2022/07/25 05:36:03;;;;;;;0.17;0.00;;;21.60;99.90;;;;;;5071036;28;20057;-81
2022/07/25 05:38:29;;;;;;;0.00;0.00;;;21.60;99.90;;;;;;5087894;28;20087;-81
2022/07/25 05:40:55;;;;;;;0.10;0.00;;;21.70;99.90;;;;;;5087882;28;20061;-81
2022/07/25 05:43:21;;;;;;;0.00;0.00;;;21.80;99.90;;;;;;5070909;28;20044;-81
2022/07/25 05:45:46;;;;;;;0.00;0.00;;;21.90;99.90;;;;;;5070919;28;20088;-80
2022/07/25 05:48:13;;;;;;;0.13;0.00;;;22.10;99.90;;;;;;5070742;28;20430;-81
2022/07/25 05:50:40;;;;;;;0.00;0.00;;;22.40;99.90;;;;;;5088035;28;20049;-81
2022/07/25 05:53:06;;;;;;;0.00;0.00;;;22.50;99.90;;;;;;5087865;28;20065;-81
2022/07/25 05:55:31;;;;;;;0.35;0.00;;;22.50;99.90;;;;;;5084257;28;20057;-81
2022/07/25 05:57:57;;;;;;;0.20;0.10;;;22.60;99.90;;;;;;5081414;28;20464;-81
2022/07/25 06:00:23;;;;;;;0.00;0.00;;;22.60;99.90;;;;;;5087426;28;20393;-81
2022/07/25 06:02:49;;;;;;;0.00;0.00;;;22.50;99.90;;;;;;5087271;28;20047;-81
2022/07/25 06:05:15;;;;;;;0.10;0.10;;;22.60;99.90;;;;;;5087471;28;20036;-80
2022/07/25 06:07:41;;;;;;;0.00;0.00;;;22.60;99.90;;;;;;5070416;28;20057;-80
2022/07/25 06:10:07;;;;;;;0.10;0.03;;;22.70;99.90;;;;;;5087321;28;20052;-80
2022/07/25 06:12:33;;;;;;;0.43;0.43;;;22.80;99.90;;;;;;5087127;28;20041;-80
2022/07/25 06:14:59;;;;;;;0.88;0.20;;;22.80;99.90;;;;;;5087124;28;20045;-81
2022/07/25 06:17:25;;;;;;;0.10;0.00;;;22.90;99.90;;;;;;5070392;28;20055;-81
2022/07/25 06:19:51;;;;;;;0.00;0.00;;;22.90;99.90;;;;;;5070313;28;20057;-81
2022/07/25 06:22:18;;;;;;;0.20;0.00;;;23.00;99.90;;;;;;5087424;28;20080;-81
2022/07/25 06:24:44;;;;;;;0.00;0.00;;;23.00;99.90;;;;;;5070334;28;20049;-81
2022/07/25 06:27:10;;;;;;;0.10;0.08;;;23.00;99.90;;;;;;5070272;28;20049;-81
2022/07/25 06:29:37;;;;;;;0.47;0.28;;;23.10;99.90;;;;;;5087135;28;20492;-81
2022/07/25 06:32:02;;;;;;;0.32;0.00;;;23.00;99.90;;;;;;5086993;28;20045;-80
2022/07/25 06:34:28;;;;;;;0.00;0.00;;;23.00;99.90;;;;;;5070041;28;20045;-81
2022/07/25 06:36:56;;;;;;;0.10;0.10;;;23.00;99.90;;;;;;5087045;28;20243;-81
2022/07/25 06:39:22;;;;;;;0.10;0.10;;;23.00;99.90;;;;;;5086447;28;20045;-81
2022/07/25 06:41:48;;;;;;;0.40;0.25;;;22.90;99.90;;;;;;5069702;28;20056;-80
2022/07/25 06:44:14;;;;;;;0.28;0.00;;;22.90;99.90;;;;;;5086918;28;20473;-81
2022/07/25 06:46:39;;;;;;;0.00;0.00;;;22.90;99.90;;;;;;5069789;28;20044;-80
2022/07/25 06:49:05;;;;;;;0.32;0.20;;;23.00;99.90;;;;;;5086902;28;20045;-80
2022/07/25 06:51:31;;;;;;;0.28;0.20;;;23.10;99.90;;;;;;5069845;28;20045;-80
2022/07/25 06:53:57;;;;;;;0.20;0.20;;;23.10;99.90;;;;;;5069846;28;20036;-80
2022/07/25 06:56:23;;;;;;;0.00;0.00;;;23.20;99.90;;;;;;5086592;28;20045;-81
2022/07/25 06:58:49;;;;;;;0.32;0.32;;;23.30;99.90;;;;;;5069071;28;20568;-80
2022/07/25 07:01:15;;;;;;;0.40;0.40;;;23.40;99.90;;;;;;5086454;28;20524;-81
2022/07/25 07:03:40;;;;;;;0.10;0.10;;;23.40;99.90;;;;;;5086257;28;20087;-81
2022/07/25 07:06:11;;;;;;;2.03;0.22;;;23.50;99.90;;;;;;5086375;28;20076;-81
2022/07/25 07:08:36;;;;;;;0.10;0.10;;;23.50;99.90;;;;;;5069964;28;20048;-80
2022/07/25 07:11:03;;;;;;;0.20;0.20;;;23.60;99.90;;;;;;5086562;28;20048;-80
2022/07/25 07:13:28;;;;;;;0.20;0.10;;;23.70;99.90;;;;;;5086328;28;20550;-80
2022/07/25 07:15:54;;;;;;;0.22;0.22;;;23.70;99.90;;;;;;5085964;28;20061;-80
2022/07/25 07:18:20;;;;;;;0.08;0.05;;;24.00;99.90;;;;;;5069546;28;20052;-81
2022/07/25 07:20:46;;;;;;;0.52;0.10;;;24.00;99.90;;;;;;5086201;28;20102;-81
2022/07/25 07:23:12;;;;;;;0.10;0.10;;;24.10;99.90;;;;;;5069455;28;20057;-81
2022/07/25 07:25:38;;;;;;;0.20;0.20;;;24.20;99.90;;;;;;5086319;28;20041;-81
2022/07/25 07:28:04;;;;;;;0.10;0.03;;;24.30;99.90;;;;;;5086296;28;20381;-81
2022/07/25 07:30:31;;;;;;;0.63;0.43;;;24.40;99.90;;;;;;5086136;28;20140;-81
2022/07/25 07:32:57;;;;;;;0.10;0.10;;;24.50;99.90;;;;;;5086313;28;20051;-81
2022/07/25 07:35:24;;;;;;;0.08;0.05;;;24.60;99.90;;;;;;5036128;28;20107;-81
2022/07/25 07:37:53;;;;;;;0.10;0.08;;;24.80;99.90;;;;;;5086095;28;20045;-81
2022/07/25 07:40:19;;;;;;;0.00;0.00;;;25.00;99.90;;;;;;5086388;28;20041;-81
2022/07/25 07:42:48;;;;;;;0.95;0.65;;;25.00;99.90;;;;;;5068937;28;20064;-81
2022/07/25 07:45:16;;;;;;;0.35;0.10;;;25.00;99.90;;;;;;5069211;28;20048;-81
2022/07/25 07:47:41;;;;;;;0.52;0.13;;;25.20;99.90;;;;;;5085706;28;20464;-81
2022/07/25 07:50:08;;;;;;;0.25;0.10;;;25.30;99.90;;;;;;5086414;28;20056;-81
2022/07/25 07:52:35;;;;;;;0.00;0.00;;;25.30;99.90;;;;;;5073527;28;20052;-81
2022/07/25 07:57:45;;;;;;;0.20;0.10;;;25.40;99.90;;;;;;5090466;28;20468;-81
2022/07/25 08:00:11;;;;;;;0.10;0.10;;;25.40;99.90;;;;;;5073156;28;20140;-81
2022/07/25 08:02:45;;;;;;;0.05;0.05;;;25.40;99.90;;;;;;5073193;28;20404;-81
2022/07/25 08:05:12;;;;;;;;;;;25.40;99.90;;;;;;5090332;28;20053;-81
2022/07/25 08:07:38;;;;;;;0.08;0.05;;;25.50;99.90;;;;;;5072917;28;19928;-81
2022/07/25 08:10:04;;;;;;;0.10;0.10;;;25.50;99.90;;;;;;5089568;28;20045;-81
2022/07/25 08:12:30;;;;;;;0.38;0.38;;;25.50;99.90;;;;;;5072891;28;20134;-81
2022/07/25 08:14:55;;;;;;;0.00;0.00;;;25.50;99.90;;;;;;5089936;28;20076;-81
2022/07/25 08:17:21;;;;;;;2.22;0.80;;;25.40;99.90;;;;;;5072695;28;20117;-81
2022/07/25 08:19:47;;;;;;;0.10;0.10;;;25.30;99.90;;;;;;5072631;28;20040;-81
2022/07/25 08:22:12;;;;;;;0.03;0.03;;;25.30;99.90;;;;;;5072442;28;20045;-81
2022/07/25 08:24:38;;;;;;;0.63;0.35;;;25.20;99.90;;;;;;5089457;28;20140;-81
2022/07/25 08:27:04;;;;;;;0.05;0.05;;;25.20;99.90;;;;;;5072475;28;20132;-81
2022/07/25 08:29:29;;;;;;;0.20;0.17;;;25.10;99.90;;;;;;5089282;28;20041;-81
2022/07/25 08:31:55;;;;;;;0.00;0.00;;;25.00;99.90;;;;;;5072482;28;20055;-81
2022/07/25 08:34:21;;;;;;;0.52;0.05;;;24.90;99.90;;;;;;5088964;28;20041;-81
2022/07/25 08:36:47;;;;;;;0.20;0.10;;;24.80;99.90;;;;;;5089265;28;20088;-81
2022/07/25 08:39:13;;;;;;;0.00;0.00;;;24.70;99.90;;;;;;5089107;28;20049;-81
2022/07/25 08:41:40;;;;;;;0.10;0.00;;;24.70;99.90;;;;;;5072264;28;20056;-81
2022/07/25 08:44:08;;;;;;;0.00;0.00;;;24.60;99.90;;;;;;5088898;28;20128;-81
2022/07/25 08:46:34;;;;;;;0.00;0.00;;;24.50;99.90;;;;;;5072137;28;20060;-81
2022/07/25 08:49:01;;;;;;;0.30;0.17;;;24.50;99.90;;;;;;5038689;28;20060;-81
2022/07/25 08:51:27;;;;;;;0.00;0.00;;;24.60;99.90;;;;;;5072285;28;20056;-81
2022/07/25 08:53:53;;;;;;;0.22;0.20;;;24.70;99.90;;;;;;5088659;28;20134;-81
2022/07/25 08:56:19;;;;;;;0.40;0.20;;;24.80;99.90;;;;;;5072618;28;20453;-81
2022/07/25 08:58:45;;;;;;;0.00;0.00;;;24.80;99.90;;;;;;5088452;28;20136;-81
2022/07/25 09:01:12;;;;;;;0.10;0.10;;;24.80;99.90;;;;;;5088293;28;20049;-81
2022/07/25 09:03:39;;;;;;;0.00;0.00;;;24.70;99.90;;;;;;5071688;28;20045;-81
2022/07/25 09:06:16;;;;;;;0.08;0.08;;;24.70;99.90;;;;;;5087329;28;20053;-81
2022/07/25 09:08:52;;;;;;;0.00;0.00;;;24.50;99.90;;;;;;5088383;28;20041;-81
2022/07/25 09:11:31;;;;;;;0.10;0.10;;;24.50;99.90;;;;;;5071861;28;20048;-81
2022/07/25 09:14:05;;;;;;;0.00;0.00;;;24.40;99.90;;;;;;5071501;28;20345;-81
2022/07/25 09:16:33;;;;;;;0.00;0.00;;;24.50;99.90;;;;;;5071697;28;20053;-81
2022/07/25 09:19:20;;;;;;;0.20;0.10;;;24.50;99.90;;;;;;5038279;28;20190;-81
2022/07/25 09:22:01;;;;;;;0.00;0.00;;;24.50;99.90;;;;;;5088610;28;20052;-81
2022/07/25 09:24:28;;;;;;;0.00;0.00;;;24.40;99.90;;;;;;5071399;28;20045;-81
2022/07/25 09:26:57;;;;;;;0.00;0.00;;;24.30;99.90;;;;;;5088223;28;20052;-82
2022/07/25 09:29:29;;;;;;;1.88;0.20;;;24.20;99.90;;;;;;5071586;28;20056;-81
2022/07/25 09:31:56;;;;;;;0.00;0.00;;;24.20;99.90;;;;;;5088343;28;20087;-81
2022/07/25 09:34:39;;;;;;;0.00;0.00;;;24.10;99.90;;;;;;5088190;28;20049;-81
2022/07/25 09:37:07;;;;;;;0.00;0.00;;;24.10;99.90;;;;;;5088120;28;20187;-81
2022/07/25 09:39:45;;;;;;;0.00;0.00;;;24.20;99.90;;;;;;5087872;28;20439;-81
2022/07/25 09:42:25;;;;;;;0.00;0.00;;;24.40;99.90;;;;;;5087810;28;20041;-81
2022/07/25 09:44:59;;;;;;;0.10;0.10;;;24.60;99.90;;;;;;5071683;28;20049;-81
2022/07/25 09:47:24;;;;;;;0.00;0.00;;;24.70;99.90;;;;;;5087908;28;20477;-81
2022/07/25 09:49:51;;;;;;;0.57;0.25;;;24.80;99.90;;;;;;5054322;28;20045;-82
2022/07/25 09:52:17;;;;;;;0.15;0.15;;;24.90;99.90;;;;;;5087506;28;20052;-81
2022/07/25 09:54:43;;;;;;;0.08;0.08;;;24.90;99.90;;;;;;5070708;28;20049;-81
2022/07/25 09:57:09;;;;;;;0.03;0.03;;;24.90;99.90;;;;;;5054377;28;20103;-82
2022/07/25 09:59:36;;;;;;;0.00;0.00;;;24.90;99.90;;;;;;5087361;28;20052;-82
2022/07/25 10:02:31;;;;;;;0.00;0.00;;;25.00;99.90;;;;;;5087388;28;20051;-82
2022/07/25 10:05:15;;;;;;;0.00;0.00;;;25.10;99.90;;;;;;5070914;28;20413;-81
2022/07/25 10:07:47;;;;;;;0.00;0.00;;;25.40;99.90;;;;;;5070745;28;20053;-82
2022/07/25 10:10:31;;;;;;;0.00;0.00;;;25.50;99.90;;;;;;5087646;28;20041;-82
2022/07/25 10:13:05;;;;;;;0.00;0.00;;;25.50;99.90;;;;;;5069774;28;20048;-82
2022/07/25 10:15:48;;;;;;;0.00;0.00;;;25.40;99.90;;;;;;5070567;28;20476;-82
2022/07/25 10:18:16;;;;;;;0.00;0.00;;;25.20;99.90;;;;;;5087360;28;20049;-81
2022/07/25 10:20:44;;;;;;;0.10;0.10;;;24.90;99.90;;;;;;5070548;28;20064;-82
2022/07/25 10:23:23;;;;;;;0.00;0.00;;;24.70;99.90;;;;;;5086998;28;20045;-82
2022/07/25 10:26:12;;;;;;;0.00;0.00;;;24.50;99.90;;;;;;5070993;28;20053;-81
2022/07/25 10:28:43;;;;;;;0.00;0.00;;;24.40;99.90;;;;;;5087382;28;20388;-81
2022/07/25 10:31:30;;;;;;;0.00;0.00;;;24.40;99.90;;;;;;5070333;28;20049;-81
2022/07/25 10:34:08;;;;;;;0.00;0.00;;;24.20;99.90;;;;;;5087774;28;21107;-81
2022/07/25 10:36:52;;;;;;;0.00;0.00;;;24.50;99.90;;;;;;5087565;28;20056;-81
2022/07/25 10:39:20;;;;;;;0.00;0.00;;;24.70;99.90;;;;;;5069561;28;20378;-82
2022/07/25 10:42:01;;;;;;;0.45;0.00;;;24.80;99.90;;;;;;5075485;28;20055;-81
2022/07/25 10:44:38;;;;;;;0.10;0.00;;;25.00;99.90;;;;;;5065062;28;20053;-81
2022/07/25 10:47:05;;;;;;;0.00;0.00;;;25.30;99.90;;;;;;5085589;28;20140;-82
2022/07/25 10:49:36;;;;;;;0.00;0.00;;;25.40;99.90;;;;;;5086284;28;20117;-82
2022/07/25 10:52:03;;;;;;;0.00;0.00;;;25.50;99.90;;;;;;5069974;28;20106;-82
2022/07/25 10:54:37;;;;;;;0.00;0.00;;;25.50;99.90;;;;;;5069705;28;20480;-81
2022/07/25 10:57:05;;;;;;;0.10;0.10;;;25.50;99.90;;;;;;5070143;28;20389;-81
2022/07/25 10:59:40;;;;;;;0.00;0.00;;;25.50;99.90;;;;;;5069148;28;20662;-81
2022/07/25 11:02:14;;;;;;;0.00;0.00;;;25.50;99.90;;;;;;5069551;28;20091;-82
2022/07/25 11:04:44;;;;;;;0.00;0.00;;;25.60;99.90;;;;;;5081724;28;20409;-81
2022/07/25 11:07:14;;;;;;;0.00;0.00;;;25.70;99.90;;;;;;5074522;28;20068;-80
2022/07/25 11:09:41;;;;;;;0.00;0.00;;;25.80;99.90;;;;;;5033112;28;20046;-80
2022/07/25 11:12:08;;;;;;;0.00;0.00;;;25.80;99.90;;;;;;5084138;28;20056;-81
2022/07/25 11:14:42;;;;;;;0.00;0.00;;;25.50;99.90;;;;;;5052748;28;20047;-81
2022/07/25 11:17:13;;;;;;;0.00;0.00;;;25.30;99.90;;;;;;5036647;28;20057;-79
2022/07/25 11:19:43;;;;;;;0.00;0.00;;;25.10;99.90;;;;;;5052330;28;20057;-80
2022/07/25 11:22:09;;;;;;;0.00;0.00;;;24.80;99.90;;;;;;5052438;28;20041;-79
2022/07/25 11:24:40;;;;;;;0.00;0.00;;;24.60;99.90;;;;;;5035850;28;20496;-80
2022/07/25 11:27:08;;;;;;;0.00;0.00;;;24.50;99.90;;;;;;5036196;28;20048;-79
2022/07/25 11:29:34;;;;;;;0.00;0.00;;;24.50;99.90;;;;;;5036015;28;20481;-79
2022/07/25 11:32:06;;;;;;;0.00;0.00;;;24.30;99.90;;;;;;5052127;28;20135;-79
2022/07/25 11:34:35;;;;;;;0.55;0.05;;;24.40;99.90;;;;;;5035769;28;20507;-78
2022/07/25 11:37:03;;;;;;;0.00;0.00;;;24.40;99.90;;;;;;5035869;28;20049;-79
2022/07/25 11:39:31;;;;;;;0.00;0.00;;;24.50;99.90;;;;;;5052364;28;20087;-80
2022/07/25 11:42:09;;;;;;;0.00;0.00;;;24.60;99.90;;;;;;5052275;28;20080;-79
2022/07/25 11:44:43;;;;;;;0.00;0.00;;;24.70;99.90;;;;;;5035818;28;20082;-79
2022/07/25 11:47:25;;;;;;;0.00;0.00;;;24.80;99.90;;;;;;5035927;28;20049;-80
2022/07/25 11:49:53;;;;;;;0.45;0.10;;;24.70;99.90;;;;;;5052948;28;20052;-79
2022/07/25 11:52:35;;;;;;;0.00;0.00;;;24.70;99.90;;;;;;5052200;28;20580;-80
2022/07/25 11:55:05;;;;;;;0.00;0.00;;;24.60;99.90;;;;;;5052257;28;20045;-80
2022/07/25 11:57:32;;;;;;;0.00;0.00;;;24.60;99.90;;;;;;5035629;28;20464;-80
2022/07/25 12:00:01;;;;;;;0.00;0.00;;;24.50;99.90;;;;;;5035713;28;20100;-80
2022/07/25 12:02:33;;;;;;;0.00;0.00;;;24.50;99.90;;;;;;5035303;28;20041;-80
2022/07/25 12:05:03;;;;;;;0.00;0.00;;;24.70;99.90;;;;;;5052306;28;20059;-80
2022/07/25 12:07:40;;;;;;;0.00;0.00;;;24.90;99.90;;;;;;5052323;28;20110;-80
2022/07/25 12:10:09;;;;;;;0.00;0.00;;;25.00;99.90;;;;;;5035382;28;20484;-80
2022/07/25 12:12:55;;;;;;;0.45;0.20;;;25.00;99.90;;;;;;5035448;28;20574;-80
2022/07/25 12:15:32;;;;;;;0.03;0.00;;;25.00;99.90;;;;;;5035633;28;20041;-80
2022/07/25 12:18:00;;;;;;;0.00;0.00;;;25.10;99.90;;;;;;5035533;28;20120;-80
2022/07/25 12:20:29;;;;;;;0.00;0.00;;;25.10;99.90;;;;;;5035619;28;20142;-80
2022/07/25 12:22:57;;;;;;;0.00;0.00;;;25.20;99.90;;;;;;5035371;28;20045;-80
2022/07/25 12:25:23;;;;;;;0.00;0.00;;;25.20;99.90;;;;;;5035753;28;20052;-80
2022/07/25 12:27:49;;;;;;;0.63;0.13;;;25.20;99.90;;;;;;5051881;28;20144;-80
2022/07/25 12:30:15;;;;;;;0.00;0.00;;;25.20;99.90;;;;;;5035401;28;20118;-80
2022/07/25 12:32:41;;;;;;;0.00;0.00;;;25.20;99.90;;;;;;5052811;28;20049;-81
2022/07/25 12:35:09;;;;;;;0.32;0.10;;;25.10;99.90;;;;;;5035332;28;20443;-81
2022/07/25 12:37:35;;;;;;;0.00;0.00;;;24.90;99.90;;;;;;5054571;28;20053;-80
2022/07/25 12:40:01;;;;;;;0.00;0.00;;;24.70;99.90;;;;;;5038914;28;20053;-80
2022/07/25 12:42:30;;;;;;;0.13;0.00;;;24.60;99.90;;;;;;5055443;28;20052;-80
2022/07/25 12:44:55;;;;;;;0.00;0.00;;;24.50;99.90;;;;;;5055622;28;20052;-80
2022/07/25 12:47:22;;;;;;;0.00;0.00;;;24.40;99.90;;;;;;5038836;28;20041;-80
2022/07/25 12:49:48;;;;;;;0.00;0.00;;;24.40;99.90;;;;;;5038471;28;20075;-80
2022/07/25 12:52:14;;;;;;;0.10;0.10;;;24.50;99.90;;;;;;5055423;28;20076;-80